Time;durP1;ratioP1;P1;durP2;ratioP2;P2;SDS_P1;SDS_P2;PMS_P1;PMS_P2;Temp;Humidity;BMP_temperature;BMP_pressure;BME280_temperature;BME280_humidity;BME280_pressure;Samples;Min_cycle;Max_cycle;Signal;HPM_P1;HPM_P2
2022/10/14 00:00:17;;;;;;;;;;;;;;;;;;2106312;28;20014;-53
2022/10/14 00:01:18;;;;;;;;;;;;;;;;;;2106245;28;19966;-54
2022/10/14 00:02:18;;;;;;;;;;;;;;;;;;2106367;28;19920;-54
2022/10/14 00:03:19;;;;;;;;;;;;;;;;;;2106237;28;19927;-54
2022/10/14 00:04:20;;;;;;;;;;;;;;;;;;2106303;28;19920;-54
2022/10/14 00:05:21;;;;;;;;;;;;;;;;;;2106391;28;19920;-55
2022/10/14 00:06:22;;;;;;;;;;;;;;;;;;2106263;28;19920;-54
2022/10/14 00:07:23;;;;;;;;;;;;;;;;;;2106288;28;19978;-54
2022/10/14 00:08:23;;;;;;;;;;;;;;;;;;2106258;28;19923;-54
2022/10/14 00:09:24;;;;;;;;;;;;;;;;;;2106281;28;19920;-55
2022/10/14 00:10:25;;;;;;;;;;;;;;;;;;2099444;28;19920;-55
2022/10/14 00:11:26;;;;;;;;;;;;;;;;;;2097893;28;20027;-54
2022/10/14 00:12:27;;;;;;;;;;;;;;;;;;2097858;28;19981;-54
2022/10/14 00:13:28;;;;;;;;;;;;;;;;;;2098041;28;19921;-53
2022/10/14 00:14:29;;;;;;;;;;;;;;;;;;2097990;28;20357;-54
2022/10/14 00:15:29;;;;;;;;;;;;;;;;;;2098015;28;19924;-55
2022/10/14 00:16:30;;;;;;;;;;;;;;;;;;2097814;28;19998;-55
2022/10/14 00:17:31;;;;;;;;;;;;;;;;;;2097822;28;19920;-55
2022/10/14 00:18:32;;;;;;;;;;;;;;;;;;2097911;28;20057;-54
2022/10/14 00:19:33;;;;;;;;;;;;;;;;;;2098215;28;19931;-54
2022/10/14 00:20:33;;;;;;;;;;;;;;;;;;2099461;28;19960;-55
2022/10/14 00:21:34;;;;;;;;;;;;;;;;;;2099290;28;20539;-54
2022/10/14 00:22:35;;;;;;;;;;;;;;;;;;2099483;28;20293;-54
2022/10/14 00:23:36;;;;;;;;;;;;;;;;;;2099436;28;19926;-54
2022/10/14 00:24:37;;;;;;;;;;;;;;;;;;2099411;28;19927;-54
2022/10/14 00:25:38;;;;;;;;;;;;;;;;;;2099308;28;20398;-54
2022/10/14 00:26:39;;;;;;;;;;;;;;;;;;2099164;28;19928;-54
2022/10/14 00:27:39;;;;;;;;;;;;;;;;;;2099405;28;19966;-54
2022/10/14 00:28:40;;;;;;;;;;;;;;;;;;2099307;28;19978;-54
2022/10/14 00:29:41;;;;;;;;;;;;;;;;;;2099244;28;19921;-54
2022/10/14 00:30:42;;;;;;;;;;;;;;;;;;2099234;28;19961;-54
2022/10/14 00:31:42;;;;;;;;;;;;;;;;;;2099123;28;19920;-54
2022/10/14 00:32:43;;;;;;;;;;;;;;;;;;2099306;28;19964;-53
2022/10/14 00:33:44;;;;;;;;;;;;;;;;;;2099387;28;19943;-54
2022/10/14 00:34:45;;;;;;;;;;;;;;;;;;2099333;28;19920;-54
2022/10/14 00:35:46;;;;;;;;;;;;;;;;;;2099189;28;20361;-54
2022/10/14 00:36:47;;;;;;;;;;;;;;;;;;2105946;28;19954;-55
2022/10/14 00:37:47;;;;;;;;;;;;;;;;;;2107602;28;19920;-54
2022/10/14 00:38:48;;;;;;;;;;;;;;;;;;2107675;28;19920;-54
2022/10/14 00:39:49;;;;;;;;;;;;;;;;;;2107607;28;19920;-54
2022/10/14 00:40:53;;;;;;;;;;;;;;;;;;2107668;28;19969;-55
2022/10/14 00:41:54;;;;;;;;;;;;;;;;;;2107471;28;19989;-54
2022/10/14 00:42:55;;;;;;;;;;;;;;;;;;2107647;28;20420;-55
2022/10/14 00:43:56;;;;;;;;;;;;;;;;;;2107619;28;19927;-54
2022/10/14 00:44:57;;;;;;;;;;;;;;;;;;2107678;28;19969;-54
2022/10/14 00:45:58;;;;;;;;;;;;;;;;;;2107550;28;19977;-55
2022/10/14 00:46:58;;;;;;;;;;;;;;;;;;2107427;28;19927;-55
2022/10/14 00:47:59;;;;;;;;;;;;;;;;;;2107501;28;20013;-55
2022/10/14 00:49:00;;;;;;;;;;;;;;;;;;2107485;28;19927;-55
2022/10/14 00:50:01;;;;;;;;;;;;;;;;;;2107641;28;20361;-55
2022/10/14 00:51:02;;;;;;;;;;;;;;;;;;2107475;28;19920;-55
2022/10/14 00:52:03;;;;;;;;;;;;;;;;;;2107419;28;19924;-55
2022/10/14 00:53:03;;;;;;;;;;;;;;;;;;2107543;28;19966;-55
2022/10/14 00:54:04;;;;;;;;;;;;;;;;;;2107561;28;20380;-55
2022/10/14 00:55:05;;;;;;;;;;;;;;;;;;2107483;28;19920;-55
2022/10/14 00:56:06;;;;;;;;;;;;;;;;;;2107588;28;20005;-55
2022/10/14 00:57:07;;;;;;;;;;;;;;;;;;2107524;28;19943;-55
2022/10/14 00:58:08;;;;;;;;;;;;;;;;;;2107404;28;19956;-55
2022/10/14 00:59:08;;;;;;;;;;;;;;;;;;2107476;28;19919;-54
2022/10/14 01:00:09;;;;;;;;;;;;;;;;;;2107428;28;19920;-55
2022/10/14 01:01:10;;;;;;;;;;;;;;;;;;2107523;28;19927;-55
2022/10/14 01:02:11;;;;;;;;;;;;;;;;;;2107406;28;19971;-54
2022/10/14 01:03:12;;;;;;;;;;;;;;;;;;2107411;28;19939;-55
2022/10/14 01:04:12;;;;;;;;;;;;;;;;;;2107480;28;19920;-54
2022/10/14 01:05:13;;;;;;;;;;;;;;;;;;2107424;28;20312;-55
2022/10/14 01:06:14;;;;;;;;;;;;;;;;;;2107376;28;19920;-55
2022/10/14 01:07:15;;;;;;;;;;;;;;;;;;2107282;28;19920;-52
2022/10/14 01:08:16;;;;;;;;;;;;;;;;;;2107531;28;20023;-55
2022/10/14 01:09:16;;;;;;;;;;;;;;;;;;2107356;28;20388;-54
2022/10/14 01:10:17;;;;;;;;;;;;;;;;;;2101851;28;19955;-54
2022/10/14 01:11:18;;;;;;;;;;;;;;;;;;2098905;28;19927;-55
2022/10/14 01:12:19;;;;;;;;;;;;;;;;;;2099041;28;19956;-54
2022/10/14 01:13:35;;;;;;;;;;;;;;;;;;2099038;28;19920;-55
2022/10/14 01:14:36;;;;;;;;;;;;;;;;;;2099058;28;19926;-55
2022/10/14 01:15:36;;;;;;;;;;;;;;;;;;2099116;28;19920;-54
2022/10/14 01:16:37;;;;;;;;;;;;;;;;;;2099043;28;20006;-55
2022/10/14 01:17:38;;;;;;;;;;;;;;;;;;2099058;28;20001;-55
2022/10/14 01:18:39;;;;;;;;;;;;;;;;;;2099029;28;20368;-54
2022/10/14 01:19:40;;;;;;;;;;;;;;;;;;2099147;28;19920;-55
2022/10/14 01:20:41;;;;;;;;;;;;;;;;;;2098947;28;20010;-55
2022/10/14 01:21:42;;;;;;;;;;;;;;;;;;2099052;28;19920;-55
2022/10/14 01:22:42;;;;;;;;;;;;;;;;;;2103756;28;19920;-55
2022/10/14 01:23:43;;;;;;;;;;;;;;;;;;2107390;28;19924;-54
2022/10/14 01:24:44;;;;;;;;;;;;;;;;;;2107317;28;20441;-54
2022/10/14 01:25:45;;;;;;;;;;;;;;;;;;2107385;28;19974;-55
2022/10/14 01:26:46;;;;;;;;;;;;;;;;;;2107177;28;20024;-55
2022/10/14 01:27:46;;;;;;;;;;;;;;;;;;2107236;28;19924;-55
2022/10/14 01:28:47;;;;;;;;;;;;;;;;;;2107212;28;19946;-55
2022/10/14 01:29:48;;;;;;;;;;;;;;;;;;2107395;28;19946;-55
2022/10/14 01:30:49;;;;;;;;;;;;;;;;;;2106821;28;19920;-55
2022/10/14 01:31:50;;;;;;;;;;;;;;;;;;2106433;28;20388;-55
2022/10/14 01:32:51;;;;;;;;;;;;;;;;;;2106737;28;20378;-55
2022/10/14 01:33:51;;;;;;;;;;;;;;;;;;2107248;28;19927;-55
2022/10/14 01:34:52;;;;;;;;;;;;;;;;;;2107199;28;20011;-55
2022/10/14 01:35:53;;;;;;;;;;;;;;;;;;2107286;28;19928;-55
2022/10/14 01:36:54;;;;;;;;;;;;;;;;;;2107124;28;19963;-54
2022/10/14 01:37:54;;;;;;;;;;;;;;;;;;2107136;28;19920;-55
2022/10/14 01:38:55;;;;;;;;;;;;;;;;;;2107268;28;19920;-55
2022/10/14 01:39:56;;;;;;;;;;;;;;;;;;2107283;28;20286;-55
2022/10/14 01:40:57;;;;;;;;;;;;;;;;;;2107145;28;20342;-55
2022/10/14 01:41:58;;;;;;;;;;;;;;;;;;2107200;28;19969;-55
2022/10/14 01:42:59;;;;;;;;;;;;;;;;;;2107104;28;19971;-55
2022/10/14 01:44:00;;;;;;;;;;;;;;;;;;2107294;28;20007;-55
2022/10/14 01:45:00;;;;;;;;;;;;;;;;;;2107167;28;20365;-55
2022/10/14 01:46:01;;;;;;;;;;;;;;;;;;2107132;28;19920;-55
2022/10/14 01:47:02;;;;;;;;;;;;;;;;;;2107220;28;20419;-55
2022/10/14 01:48:03;;;;;;;;;;;;;;;;;;2107088;28;19970;-55
2022/10/14 01:49:04;;;;;;;;;;;;;;;;;;2107100;28;19973;-55
2022/10/14 01:50:05;;;;;;;;;;;;;;;;;;2107086;28;19965;-55
2022/10/14 01:51:05;;;;;;;;;;;;;;;;;;2107101;28;19999;-55
2022/10/14 01:52:06;;;;;;;;;;;;;;;;;;2107060;28;20292;-55
2022/10/14 01:53:07;;;;;;;;;;;;;;;;;;2107214;28;20349;-55
2022/10/14 01:54:08;;;;;;;;;;;;;;;;;;2107058;28;20030;-55
2022/10/14 01:55:09;;;;;;;;;;;;;;;;;;2107100;28;19920;-54
2022/10/14 01:56:10;;;;;;;;;;;;;;;;;;2107111;28;19920;-55
2022/10/14 01:57:10;;;;;;;;;;;;;;;;;;2107048;28;19920;-55
2022/10/14 01:58:11;;;;;;;;;;;;;;;;;;2106979;28;20333;-55
2022/10/14 01:59:12;;;;;;;;;;;;;;;;;;2107074;28;20016;-55
2022/10/14 02:00:13;;;;;;;;;;;;;;;;;;2107122;28;19978;-55
2022/10/14 02:01:14;;;;;;;;;;;;;;;;;;2107011;28;20372;-55
2022/10/14 02:02:15;;;;;;;;;;;;;;;;;;2106924;28;19959;-56
2022/10/14 02:03:15;;;;;;;;;;;;;;;;;;2106978;28;19970;-55
2022/10/14 02:04:16;;;;;;;;;;;;;;;;;;2107173;28;19926;-55
2022/10/14 02:05:17;;;;;;;;;;;;;;;;;;2107033;28;19927;-55
2022/10/14 02:06:18;;;;;;;;;;;;;;;;;;2106934;28;20373;-55
2022/10/14 02:07:19;;;;;;;;;;;;;;;;;;2106994;28;19959;-55
2022/10/14 02:08:20;;;;;;;;;;;;;;;;;;2107121;28;20254;-55
2022/10/14 02:09:21;;;;;;;;;;;;;;;;;;2107053;28;19924;-55
2022/10/14 02:10:22;;;;;;;;;;;;;;;;;;2100826;28;19920;-55
2022/10/14 02:11:22;;;;;;;;;;;;;;;;;;2098489;28;19921;-55
2022/10/14 02:12:23;;;;;;;;;;;;;;;;;;2098461;28;19967;-55
2022/10/14 02:13:24;;;;;;;;;;;;;;;;;;2098589;28;20296;-56
2022/10/14 02:14:25;;;;;;;;;;;;;;;;;;2098627;28;19977;-55
2022/10/14 02:15:26;;;;;;;;;;;;;;;;;;2098672;28;20380;-54
2022/10/14 02:16:27;;;;;;;;;;;;;;;;;;2098622;28;19970;-55
2022/10/14 02:17:28;;;;;;;;;;;;;;;;;;2098531;28;19981;-54
2022/10/14 02:18:28;;;;;;;;;;;;;;;;;;2098592;28;19970;-55
2022/10/14 02:19:29;;;;;;;;;;;;;;;;;;2098744;28;20488;-55
2022/10/14 02:20:30;;;;;;;;;;;;;;;;;;2098688;28;19920;-55
2022/10/14 02:21:31;;;;;;;;;;;;;;;;;;2098629;28;20280;-55
2022/10/14 02:22:32;;;;;;;;;;;;;;;;;;2098636;28;19970;-54
2022/10/14 02:23:33;;;;;;;;;;;;;;;;;;2098471;28;19943;-55
2022/10/14 02:24:33;;;;;;;;;;;;;;;;;;2098525;28;20388;-54
2022/10/14 02:25:34;;;;;;;;;;;;;;;;;;2098492;28;19920;-54
2022/10/14 02:26:35;;;;;;;;;;;;;;;;;;2098540;28;20304;-54
2022/10/14 02:27:36;;;;;;;;;;;;;;;;;;2098827;28;20064;-55
2022/10/14 02:28:37;;;;;;;;;;;;;;;;;;2099622;28;19920;-55
2022/10/14 02:29:38;;;;;;;;;;;;;;;;;;2106898;28;19947;-55
2022/10/14 02:30:38;;;;;;;;;;;;;;;;;;2106923;28;19931;-55
2022/10/14 02:31:39;;;;;;;;;;;;;;;;;;2106864;28;19926;-55
2022/10/14 02:32:40;;;;;;;;;;;;;;;;;;2106783;28;20502;-55
2022/10/14 02:33:41;;;;;;;;;;;;;;;;;;2106878;28;19927;-55
2022/10/14 02:34:42;;;;;;;;;;;;;;;;;;2106767;28;19920;-55
2022/10/14 02:35:43;;;;;;;;;;;;;;;;;;2106925;28;19959;-55
2022/10/14 02:36:43;;;;;;;;;;;;;;;;;;2106763;28;20436;-55
2022/10/14 02:37:44;;;;;;;;;;;;;;;;;;2106806;28;19965;-56
2022/10/14 02:38:45;;;;;;;;;;;;;;;;;;2106683;28;19927;-55
2022/10/14 02:39:46;;;;;;;;;;;;;;;;;;2106960;28;19920;-56
2022/10/14 02:40:46;;;;;;;;;;;;;;;;;;2106906;28;20296;-55
2022/10/14 02:41:47;;;;;;;;;;;;;;;;;;2106861;28;20699;-54
2022/10/14 02:42:48;;;;;;;;;;;;;;;;;;2106522;28;19988;-55
2022/10/14 02:43:49;;;;;;;;;;;;;;;;;;2106760;28;20137;-54
2022/10/14 02:44:50;;;;;;;;;;;;;;;;;;2106878;28;20309;-55
2022/10/14 02:45:51;;;;;;;;;;;;;;;;;;2106746;28;20416;-55
2022/10/14 02:46:52;;;;;;;;;;;;;;;;;;2106679;28;20384;-54
2022/10/14 02:47:52;;;;;;;;;;;;;;;;;;2106738;28;20023;-55
2022/10/14 02:48:53;;;;;;;;;;;;;;;;;;2106726;28;20412;-55
2022/10/14 02:49:54;;;;;;;;;;;;;;;;;;2106697;28;19920;-55
2022/10/14 02:50:55;;;;;;;;;;;;;;;;;;2106717;28;19920;-55
2022/10/14 02:51:56;;;;;;;;;;;;;;;;;;2106681;28;19920;-55
2022/10/14 02:52:57;;;;;;;;;;;;;;;;;;2106637;28;20227;-55
2022/10/14 02:54:00;;;;;;;;;;;;;;;;;;2106708;28;19923;-55
2022/10/14 02:55:01;;;;;;;;;;;;;;;;;;2106678;28;20331;-55
2022/10/14 02:56:01;;;;;;;;;;;;;;;;;;2106810;28;19920;-54
2022/10/14 02:57:02;;;;;;;;;;;;;;;;;;2106561;28;19919;-54
2022/10/14 02:58:03;;;;;;;;;;;;;;;;;;2106704;28;19931;-54
2022/10/14 02:59:04;;;;;;;;;;;;;;;;;;2106743;28;19935;-55
2022/10/14 03:00:05;;;;;;;;;;;;;;;;;;2106759;28;19924;-55
2022/10/14 03:01:06;;;;;;;;;;;;;;;;;;2106627;28;20016;-55
2022/10/14 03:02:06;;;;;;;;;;;;;;;;;;2106738;28;19920;-55
2022/10/14 03:03:08;;;;;;;;;;;;;;;;;;2106723;28;20010;-55
2022/10/14 03:04:08;;;;;;;;;;;;;;;;;;2106609;28;20372;-55
2022/10/14 03:05:09;;;;;;;;;;;;;;;;;;2106655;28;19978;-55
2022/10/14 03:06:10;;;;;;;;;;;;;;;;;;2106687;28;19920;-55
2022/10/14 03:07:11;;;;;;;;;;;;;;;;;;2106610;28;20399;-54
2022/10/14 03:08:11;;;;;;;;;;;;;;;;;;2106521;28;19920;-55
2022/10/14 03:09:12;;;;;;;;;;;;;;;;;;2106611;28;20008;-54
2022/10/14 03:10:13;;;;;;;;;;;;;;;;;;2101572;28;19963;-55
2022/10/14 03:11:14;;;;;;;;;;;;;;;;;;2098256;28;20348;-55
2022/10/14 03:12:15;;;;;;;;;;;;;;;;;;2098266;28;19920;-55
2022/10/14 03:13:16;;;;;;;;;;;;;;;;;;2098156;28;19920;-55
2022/10/14 03:14:16;;;;;;;;;;;;;;;;;;2098348;28;20011;-54
2022/10/14 03:15:17;;;;;;;;;;;;;;;;;;2098219;28;20396;-55
2022/10/14 03:16:18;;;;;;;;;;;;;;;;;;2098264;28;19967;-55
2022/10/14 03:17:19;;;;;;;;;;;;;;;;;;2098201;28;19920;-55
2022/10/14 03:18:20;;;;;;;;;;;;;;;;;;2098206;28;20369;-54
2022/10/14 03:19:21;;;;;;;;;;;;;;;;;;2098160;28;19943;-55
2022/10/14 03:20:22;;;;;;;;;;;;;;;;;;2098282;28;20023;-55
2022/10/14 03:21:23;;;;;;;;;;;;;;;;;;2098225;28;19927;-55
2022/10/14 03:22:23;;;;;;;;;;;;;;;;;;2098245;28;19960;-55
2022/10/14 03:23:25;;;;;;;;;;;;;;;;;;2098143;28;20018;-55
2022/10/14 03:24:25;;;;;;;;;;;;;;;;;;2098072;28;19920;-54
2022/10/14 03:25:26;;;;;;;;;;;;;;;;;;2104027;28;19943;-55
2022/10/14 03:26:27;;;;;;;;;;;;;;;;;;2106654;28;19927;-55
2022/10/14 03:27:28;;;;;;;;;;;;;;;;;;2106692;28;20109;-55
2022/10/14 03:28:29;;;;;;;;;;;;;;;;;;2106536;28;19931;-55
2022/10/14 03:29:30;;;;;;;;;;;;;;;;;;2106654;28;20275;-55
2022/10/14 03:30:31;;;;;;;;;;;;;;;;;;2106554;28;20376;-55
2022/10/14 03:31:32;;;;;;;;;;;;;;;;;;2106456;28;20357;-55
2022/10/14 03:32:32;;;;;;;;;;;;;;;;;;2106686;28;20135;-54
2022/10/14 03:33:33;;;;;;;;;;;;;;;;;;2106538;28;20282;-55
2022/10/14 03:34:34;;;;;;;;;;;;;;;;;;2106585;28;20319;-55
2022/10/14 03:35:35;;;;;;;;;;;;;;;;;;2106455;28;19943;-55
2022/10/14 03:36:36;;;;;;;;;;;;;;;;;;2106343;28;19920;-54
2022/10/14 03:37:36;;;;;;;;;;;;;;;;;;2106499;28;19920;-55
2022/10/14 03:38:38;;;;;;;;;;;;;;;;;;2106464;28;20015;-55
2022/10/14 03:39:38;;;;;;;;;;;;;;;;;;2106283;28;19978;-55
2022/10/14 03:40:39;;;;;;;;;;;;;;;;;;2106407;28;19924;-55
2022/10/14 03:41:40;;;;;;;;;;;;;;;;;;2106480;28;20010;-55
2022/10/14 03:42:41;;;;;;;;;;;;;;;;;;2106424;28;20344;-54
2022/10/14 03:43:42;;;;;;;;;;;;;;;;;;2106539;28;19965;-54
2022/10/14 03:44:43;;;;;;;;;;;;;;;;;;2106397;28;20348;-55
2022/10/14 03:45:44;;;;;;;;;;;;;;;;;;2106500;28;19924;-55
2022/10/14 03:46:45;;;;;;;;;;;;;;;;;;2106360;28;20395;-55
2022/10/14 03:47:45;;;;;;;;;;;;;;;;;;2106364;28;19926;-55
2022/10/14 03:48:46;;;;;;;;;;;;;;;;;;2106277;28;19967;-55
2022/10/14 03:49:47;;;;;;;;;;;;;;;;;;2106370;28;19973;-54
2022/10/14 03:50:48;;;;;;;;;;;;;;;;;;2106359;28;19970;-54
2022/10/14 03:51:49;;;;;;;;;;;;;;;;;;2106303;28;19927;-54
2022/10/14 03:52:50;;;;;;;;;;;;;;;;;;2106520;28;20208;-54
2022/10/14 03:53:55;;;;;;;;;;;;;;;;;;2106504;28;19966;-54
2022/10/14 03:54:56;;;;;;;;;;;;;;;;;;2107407;28;20319;-54
2022/10/14 03:55:57;;;;;;;;;;;;;;;;;;2107854;28;19954;-54
2022/10/14 03:56:58;;;;;;;;;;;;;;;;;;2107860;28;19920;-55
2022/10/14 03:57:58;;;;;;;;;;;;;;;;;;2107829;28;20399;-54
2022/10/14 03:59:00;;;;;;;;;;;;;;;;;;2107881;28;19920;-55
2022/10/14 04:00:00;;;;;;;;;;;;;;;;;;2107818;28;19924;-55
2022/10/14 04:01:01;;;;;;;;;;;;;;;;;;2107830;28;19924;-55
2022/10/14 04:02:02;;;;;;;;;;;;;;;;;;2107695;28;19958;-54
2022/10/14 04:03:03;;;;;;;;;;;;;;;;;;2107775;28;20430;-55
2022/10/14 04:04:04;;;;;;;;;;;;;;;;;;2107887;28;19976;-55
2022/10/14 04:05:05;;;;;;;;;;;;;;;;;;2107914;28;19927;-54
2022/10/14 04:06:06;;;;;;;;;;;;;;;;;;2107749;28;20284;-55
2022/10/14 04:07:07;;;;;;;;;;;;;;;;;;2107690;28;19920;-54
2022/10/14 04:08:08;;;;;;;;;;;;;;;;;;2107894;28;20395;-55
2022/10/14 04:09:08;;;;;;;;;;;;;;;;;;2107708;28;20006;-54
2022/10/14 04:10:09;;;;;;;;;;;;;;;;;;2103179;28;19928;-54
2022/10/14 04:11:10;;;;;;;;;;;;;;;;;;2099446;28;19920;-55
2022/10/14 04:12:11;;;;;;;;;;;;;;;;;;2099359;28;20377;-54
2022/10/14 04:13:12;;;;;;;;;;;;;;;;;;2099353;28;20019;-54
2022/10/14 04:14:13;;;;;;;;;;;;;;;;;;2099517;28;19927;-55
2022/10/14 04:15:14;;;;;;;;;;;;;;;;;;2099396;28;19969;-55
2022/10/14 04:16:15;;;;;;;;;;;;;;;;;;2099295;28;19920;-55
2022/10/14 04:17:16;;;;;;;;;;;;;;;;;;2099299;28;19920;-54
2022/10/14 04:18:16;;;;;;;;;;;;;;;;;;2099294;28;19927;-54
2022/10/14 04:19:17;;;;;;;;;;;;;;;;;;2099467;28;19942;-54
2022/10/14 04:20:18;;;;;;;;;;;;;;;;;;2099304;28;20016;-55
2022/10/14 04:21:19;;;;;;;;;;;;;;;;;;2102358;28;19931;-54
2022/10/14 04:22:21;;;;;;;;;;;;;;;;;;2107543;28;19919;-54
2022/10/14 04:23:23;;;;;;;;;;;;;;;;;;2107847;28;19924;-55
2022/10/14 04:24:23;;;;;;;;;;;;;;;;;;2107609;28;19920;-54
2022/10/14 04:25:24;;;;;;;;;;;;;;;;;;2107788;28;19924;-54
2022/10/14 04:26:25;;;;;;;;;;;;;;;;;;2107653;28;19927;-55
2022/10/14 04:27:26;;;;;;;;;;;;;;;;;;2107560;28;20166;-54
2022/10/14 04:28:26;;;;;;;;;;;;;;;;;;2107765;28;19920;-54
2022/10/14 04:29:27;;;;;;;;;;;;;;;;;;2107674;28;20011;-55
2022/10/14 04:30:28;;;;;;;;;;;;;;;;;;2107701;28;19927;-53
2022/10/14 04:31:29;;;;;;;;;;;;;;;;;;2107509;28;19967;-55
2022/10/14 04:32:30;;;;;;;;;;;;;;;;;;2107780;28;19927;-55
2022/10/14 04:33:31;;;;;;;;;;;;;;;;;;2107591;28;20006;-53
2022/10/14 04:34:32;;;;;;;;;;;;;;;;;;2107587;28;19920;-55
2022/10/14 04:35:33;;;;;;;;;;;;;;;;;;2107723;28;19958;-54
2022/10/14 04:36:34;;;;;;;;;;;;;;;;;;2107465;28;20373;-55
2022/10/14 04:37:35;;;;;;;;;;;;;;;;;;2107581;28;19927;-55
2022/10/14 04:38:35;;;;;;;;;;;;;;;;;;2107564;28;19926;-55
2022/10/14 04:39:36;;;;;;;;;;;;;;;;;;2107534;28;20022;-54
2022/10/14 04:40:37;;;;;;;;;;;;;;;;;;2107533;28;19920;-54
2022/10/14 04:41:38;;;;;;;;;;;;;;;;;;2107467;28;19927;-55
2022/10/14 04:42:38;;;;;;;;;;;;;;;;;;2107593;28;19963;-54
2022/10/14 04:43:39;;;;;;;;;;;;;;;;;;2107569;28;19920;-55
2022/10/14 04:44:40;;;;;;;;;;;;;;;;;;2107512;28;19920;-54
2022/10/14 04:45:41;;;;;;;;;;;;;;;;;;2107527;28;19965;-55
2022/10/14 04:46:42;;;;;;;;;;;;;;;;;;2107486;28;19920;-54
2022/10/14 04:47:43;;;;;;;;;;;;;;;;;;2107522;28;19927;-54
2022/10/14 04:48:49;;;;;;;;;;;;;;;;;;2107517;28;19927;-54
2022/10/14 04:49:50;;;;;;;;;;;;;;;;;;2107510;28;19927;-54
2022/10/14 04:50:50;;;;;;;;;;;;;;;;;;2107508;28;19930;-55
2022/10/14 04:51:51;;;;;;;;;;;;;;;;;;2107263;28;19951;-55
2022/10/14 04:52:52;;;;;;;;;;;;;;;;;;2107624;28;20361;-54
2022/10/14 04:53:53;;;;;;;;;;;;;;;;;;2107430;28;20373;-54
2022/10/14 04:54:54;;;;;;;;;;;;;;;;;;2107462;28;19931;-54
2022/10/14 04:55:55;;;;;;;;;;;;;;;;;;2107405;28;19920;-54
2022/10/14 04:56:55;;;;;;;;;;;;;;;;;;2107399;28;19974;-54
2022/10/14 04:57:56;;;;;;;;;;;;;;;;;;2107601;28;19927;-55
2022/10/14 04:58:57;;;;;;;;;;;;;;;;;;2107402;28;20028;-54
2022/10/14 04:59:58;;;;;;;;;;;;;;;;;;2107471;28;19977;-55
2022/10/14 05:00:59;;;;;;;;;;;;;;;;;;2107455;28;19920;-55
2022/10/14 05:02:00;;;;;;;;;;;;;;;;;;2107348;28;19955;-55
2022/10/14 05:03:00;;;;;;;;;;;;;;;;;;2107431;28;20373;-54
2022/10/14 05:04:01;;;;;;;;;;;;;;;;;;2107579;28;19920;-53
2022/10/14 05:05:02;;;;;;;;;;;;;;;;;;2107399;28;19920;-55
2022/10/14 05:06:03;;;;;;;;;;;;;;;;;;2107349;28;19969;-54
2022/10/14 05:07:04;;;;;;;;;;;;;;;;;;2107333;28;19923;-54
2022/10/14 05:08:04;;;;;;;;;;;;;;;;;;2107432;28;20234;-54
2022/10/14 05:09:05;;;;;;;;;;;;;;;;;;2107470;28;19919;-54
2022/10/14 05:10:06;;;;;;;;;;;;;;;;;;2103194;28;19926;-54
2022/10/14 05:11:07;;;;;;;;;;;;;;;;;;2099063;28;19956;-55
2022/10/14 05:12:08;;;;;;;;;;;;;;;;;;2098799;28;19924;-53
2022/10/14 05:13:09;;;;;;;;;;;;;;;;;;2098997;28;19920;-54
2022/10/14 05:14:10;;;;;;;;;;;;;;;;;;2099040;28;19920;-54
2022/10/14 05:15:11;;;;;;;;;;;;;;;;;;2099084;28;20304;-53
2022/10/14 05:16:12;;;;;;;;;;;;;;;;;;2099060;28;19920;-55
2022/10/14 05:17:13;;;;;;;;;;;;;;;;;;2099259;28;20285;-55
2022/10/14 05:18:14;;;;;;;;;;;;;;;;;;2099099;28;19979;-53
2022/10/14 05:19:14;;;;;;;;;;;;;;;;;;2098907;28;19924;-54
2022/10/14 05:20:15;;;;;;;;;;;;;;;;;;2098849;28;20419;-54
2022/10/14 05:21:16;;;;;;;;;;;;;;;;;;2098893;28;19920;-54
2022/10/14 05:22:17;;;;;;;;;;;;;;;;;;2098770;28;20011;-54
2022/10/14 05:23:18;;;;;;;;;;;;;;;;;;2098874;28;20007;-54
2022/10/14 05:24:19;;;;;;;;;;;;;;;;;;2099027;28;20011;-55
2022/10/14 05:25:19;;;;;;;;;;;;;;;;;;2098983;28;20528;-54
2022/10/14 05:26:20;;;;;;;;;;;;;;;;;;2098935;28;19927;-55
2022/10/14 05:27:21;;;;;;;;;;;;;;;;;;2098782;28;20058;-55
2022/10/14 05:28:22;;;;;;;;;;;;;;;;;;2099134;28;20353;-54
2022/10/14 05:29:23;;;;;;;;;;;;;;;;;;2098865;28;20335;-55
2022/10/14 05:30:24;;;;;;;;;;;;;;;;;;2098875;28;19924;-54
2022/10/14 05:31:24;;;;;;;;;;;;;;;;;;2098842;28;19963;-55
2022/10/14 05:32:25;;;;;;;;;;;;;;;;;;2098662;28;19966;-54
2022/10/14 05:33:26;;;;;;;;;;;;;;;;;;2098990;28;20007;-54
2022/10/14 05:34:27;;;;;;;;;;;;;;;;;;2098860;28;19924;-55
2022/10/14 05:35:28;;;;;;;;;;;;;;;;;;2098959;28;20007;-54
2022/10/14 05:36:49;;;;;;;;;;;;;;;;;;2098943;28;19924;-54
2022/10/14 05:37:49;;;;;;;;;;;;;;;;;;2098955;28;20377;-55
2022/10/14 05:38:54;;;;;;;;;;;;;;;;;;2098874;28;20467;-54
2022/10/14 05:39:55;;;;;;;;;;;;;;;;;;2098767;28;19920;-54
2022/10/14 05:40:56;;;;;;;;;;;;;;;;;;2098867;28;20369;-54
2022/10/14 05:41:56;;;;;;;;;;;;;;;;;;2098844;28;19927;-53
2022/10/14 05:42:57;;;;;;;;;;;;;;;;;;2098765;28;19963;-54
2022/10/14 05:43:58;;;;;;;;;;;;;;;;;;2098780;28;19986;-53
2022/10/14 05:44:59;;;;;;;;;;;;;;;;;;2098922;28;19924;-55
2022/10/14 05:45:59;;;;;;;;;;;;;;;;;;2098776;28;19924;-55
2022/10/14 05:47:00;;;;;;;;;;;;;;;;;;2098833;28;19943;-53
2022/10/14 05:48:01;;;;;;;;;;;;;;;;;;2098923;28;20291;-54
2022/10/14 05:49:04;;;;;;;;;;;;;;;;;;2098735;28;20285;-54
2022/10/14 05:50:05;;;;;;;;;;;;;;;;;;2098725;28;19927;-55
2022/10/14 05:51:06;;;;;;;;;;;;;;;;;;2098733;28;19920;-54
2022/10/14 05:52:07;;;;;;;;;;;;;;;;;;2098543;28;19982;-54
2022/10/14 05:53:08;;;;;;;;;;;;;;;;;;2098739;28;19983;-55
2022/10/14 05:54:09;;;;;;;;;;;;;;;;;;2098721;28;20015;-54
2022/10/14 05:55:10;;;;;;;;;;;;;;;;;;2098706;28;19920;-54
2022/10/14 05:56:11;;;;;;;;;;;;;;;;;;2098856;28;19920;-55
2022/10/14 05:57:12;;;;;;;;;;;;;;;;;;2098611;28;19920;-55
2022/10/14 05:58:13;;;;;;;;;;;;;;;;;;2098858;28;19974;-55
2022/10/14 05:59:14;;;;;;;;;;;;;;;;;;2098744;28;20293;-55
2022/10/14 06:00:16;;;;;;;;;;;;;;;;;;2098823;28;19942;-55
2022/10/14 06:01:18;;;;;;;;;;;;;;;;;;2098627;28;19979;-55
2022/10/14 06:02:19;;;;;;;;;;;;;;;;;;2098691;28;19925;-54
2022/10/14 06:03:20;;;;;;;;;;;;;;;;;;2098678;28;20384;-55
2022/10/14 06:04:21;;;;;;;;;;;;;;;;;;2098653;28;20014;-54
2022/10/14 06:05:21;;;;;;;;;;;;;;;;;;2098667;28;19945;-55
2022/10/14 06:06:22;;;;;;;;;;;;;;;;;;2098647;28;20062;-55
2022/10/14 06:07:28;;;;;;;;;;;;;;;;;;2098825;28;19921;-54
2022/10/14 06:08:29;;;;;;;;;;;;;;;;;;2098631;28;20293;-55
2022/10/14 06:09:30;;;;;;;;;;;;;;;;;;2098653;28;20373;-54
2022/10/14 06:10:30;;;;;;;;;;;;;;;;;;2105867;28;20065;-55
2022/10/14 06:11:31;;;;;;;;;;;;;;;;;;2107016;28;20038;-54
2022/10/14 06:12:32;;;;;;;;;;;;;;;;;;2106904;28;19920;-54
2022/10/14 06:13:33;;;;;;;;;;;;;;;;;;2106325;28;19920;-54
2022/10/14 06:14:34;;;;;;;;;;;;;;;;;;2107081;28;19924;-54
2022/10/14 06:15:35;;;;;;;;;;;;;;;;;;2106900;28;19920;-54
2022/10/14 06:16:35;;;;;;;;;;;;;;;;;;2106898;28;19920;-54
2022/10/14 06:17:36;;;;;;;;;;;;;;;;;;2106268;28;20002;-54
2022/10/14 06:18:37;;;;;;;;;;;;;;;;;;2106861;28;19924;-55
2022/10/14 06:19:38;;;;;;;;;;;;;;;;;;2106970;28;19920;-54
2022/10/14 06:20:39;;;;;;;;;;;;;;;;;;2106949;28;19931;-54
2022/10/14 06:21:40;;;;;;;;;;;;;;;;;;2106757;28;20019;-54
2022/10/14 06:22:40;;;;;;;;;;;;;;;;;;2107046;28;20006;-54
2022/10/14 06:23:41;;;;;;;;;;;;;;;;;;2106870;28;20288;-55
2022/10/14 06:24:42;;;;;;;;;;;;;;;;;;2107017;28;20392;-55
2022/10/14 06:25:43;;;;;;;;;;;;;;;;;;2106878;28;19924;-54
2022/10/14 06:26:44;;;;;;;;;;;;;;;;;;2106816;28;19923;-54
2022/10/14 06:27:45;;;;;;;;;;;;;;;;;;2106870;28;19924;-55
2022/10/14 06:28:46;;;;;;;;;;;;;;;;;;2106801;28;19927;-55
2022/10/14 06:29:47;;;;;;;;;;;;;;;;;;2106856;28;19924;-54
2022/10/14 06:30:47;;;;;;;;;;;;;;;;;;2106847;28;19951;-55
2022/10/14 06:31:48;;;;;;;;;;;;;;;;;;2106944;28;20370;-55
2022/10/14 06:32:49;;;;;;;;;;;;;;;;;;2106889;28;19920;-55
2022/10/14 06:33:50;;;;;;;;;;;;;;;;;;2106918;28;20012;-55
2022/10/14 06:34:51;;;;;;;;;;;;;;;;;;2107001;28;19931;-54
2022/10/14 06:35:51;;;;;;;;;;;;;;;;;;2106983;28;20369;-55
2022/10/14 06:36:52;;;;;;;;;;;;;;;;;;2106715;28;20076;-55
2022/10/14 06:37:53;;;;;;;;;;;;;;;;;;2106791;28;19920;-54
2022/10/14 06:38:54;;;;;;;;;;;;;;;;;;2106775;28;19971;-54
2022/10/14 06:39:55;;;;;;;;;;;;;;;;;;2106756;28;19969;-54
2022/10/14 06:40:56;;;;;;;;;;;;;;;;;;2106940;28;19919;-54
2022/10/14 06:41:57;;;;;;;;;;;;;;;;;;2106672;28;19973;-53
2022/10/14 06:42:58;;;;;;;;;;;;;;;;;;2106742;28;19964;-54
2022/10/14 06:43:59;;;;;;;;;;;;;;;;;;2106769;28;19920;-54
2022/10/14 06:44:59;;;;;;;;;;;;;;;;;;2106757;28;19973;-52
2022/10/14 06:46:00;;;;;;;;;;;;;;;;;;2106710;28;19959;-51
2022/10/14 06:47:01;;;;;;;;;;;;;;;;;;2106700;28;19920;-52
2022/10/14 06:48:03;;;;;;;;;;;;;;;;;;2106876;28;19927;-53
2022/10/14 06:49:04;;;;;;;;;;;;;;;;;;2106711;28;19931;-54
2022/10/14 06:50:05;;;;;;;;;;;;;;;;;;2106844;28;19927;-54
2022/10/14 06:51:06;;;;;;;;;;;;;;;;;;2106755;28;19927;-53
2022/10/14 06:52:07;;;;;;;;;;;;;;;;;;2106757;28;19924;-55
2022/10/14 06:53:08;;;;;;;;;;;;;;;;;;2106765;28;19920;-54
2022/10/14 06:54:08;;;;;;;;;;;;;;;;;;2106809;28;19982;-54
2022/10/14 06:55:09;;;;;;;;;;;;;;;;;;2106868;28;19928;-55
2022/10/14 06:56:10;;;;;;;;;;;;;;;;;;2106828;28;19920;-54